Time,TemperatureF,DewpointF,PressureIn,WindDirection,WindDirectionDegrees,WindSpeedMPH,WindSpeedGustMPH,Humidity,HourlyPrecipIn,Conditions,Clouds,dailyrainin,SolarRadiationWatts/m^2,SoftwareType,DateUTC
2013-08-11 00:09:00,54.8,51.0,30.04,West,268,5.0,6.0,86,0.00,,,0.00,0,weatherlink.com 1.10,2013-08-11 04:09:00,
2013-08-11 00:24:00,54.8,51.0,30.04,West,265,4.0,7.0,86,0.00,,,0.00,0,weatherlink.com 1.10,2013-08-11 04:24:00,
2013-08-11 00:39:00,54.7,51.0,30.04,West,263,3.0,7.0,87,0.00,,,0.00,0,weatherlink.com 1.10,2013-08-11 04:39:00,
2013-08-11 00:54:00,54.5,50.0,30.04,West,261,4.0,7.0,86,0.00,,,0.00,0,weatherlink.com 1.10,2013-08-11 04:54:00,
2013-08-11 01:09:00,54.4,51.0,30.05,West,260,4.0,6.0,88,0.00,,,0.00,0,weatherlink.com 1.10,2013-08-11 05:09:00,
2013-08-11 01:24:00,54.1,50.0,30.04,West,266,4.0,6.0,87,0.00,,,0.00,0,weatherlink.com 1.10,2013-08-11 05:24:00,
2013-08-11 01:39:00,54.0,50.0,30.05,West,265,4.0,6.0,87,0.00,,,0.00,0,weatherlink.com 1.10,2013-08-11 05:39:00,
2013-08-11 01:54:00,54.0,51.0,30.05,West,269,5.0,7.0,88,0.00,,,0.00,0,weatherlink.com 1.10,2013-08-11 05:54:00,
2013-08-11 02:09:00,53.9,51.0,30.05,West,270,4.0,8.0,88,0.00,,,0.00,0,weatherlink.com 1.10,2013-08-11 06:09:00,
2013-08-11 02:24:00,53.8,50.0,30.05,West,266,4.0,8.0,88,0.00,,,0.00,0,weatherlink.com 1.10,2013-08-11 06:24:00,
2013-08-11 02:39:00,53.7,51.0,30.05,West,262,6.0,6.0,89,0.00,,,0.00,0,weatherlink.com 1.10,2013-08-11 06:39:00,
2013-08-11 03:09:00,53.8,51.0,30.05,West,265,5.0,7.0,89,0.00,,,0.00,0,weatherlink.com 1.10,2013-08-11 07:09:00,
2013-08-11 03:24:00,54.0,51.0,30.05,West,264,5.0,7.0,89,0.00,,,0.00,0,weatherlink.com 1.10,2013-08-11 07:24:00,
2013-08-11 03:40:00,54.5,51.0,30.05,West,262,6.0,7.0,89,0.00,,,0.00,0,weatherlink.com 1.10,2013-08-11 07:40:00,
2013-08-11 03:55:00,54.5,51.0,30.06,West,272,7.0,8.0,88,0.00,,,0.00,0,weatherlink.com 1.10,2013-08-11 07:55:00,
2013-08-11 04:10:00,54.2,51.0,30.05,West,262,6.0,8.0,88,0.00,,,0.00,0,weatherlink.com 1.10,2013-08-11 08:10:00,
2013-08-11 04:25:00,53.8,51.0,30.06,West,263,5.0,8.0,89,0.00,,,0.00,0,weatherlink.com 1.10,2013-08-11 08:25:00,
2013-08-11 04:40:00,54.2,51.0,30.06,West,265,6.0,7.0,89,0.00,,,0.00,0,weatherlink.com 1.10,2013-08-11 08:40:00,
2013-08-11 04:55:00,54.4,51.0,30.06,West,266,4.0,6.0,88,0.00,,,0.00,0,weatherlink.com 1.10,2013-08-11 08:55:00,
2013-08-11 05:10:00,54.6,51.0,30.06,West,262,4.0,6.0,88,0.00,,,0.00,0,weatherlink.com 1.10,2013-08-11 09:10:00,
2013-08-11 05:25:00,54.5,51.0,30.06,West,267,3.0,5.0,88,0.00,,,0.00,0,weatherlink.com 1.10,2013-08-11 09:25:00,
2013-08-11 05:40:00,54.2,51.0,30.06,West,269,3.0,5.0,88,0.00,,,0.00,0,weatherlink.com 1.10,2013-08-11 09:40:00,
2013-08-11 05:55:00,54.0,51.0,30.06,West,261,3.0,5.0,89,0.00,,,0.00,0,weatherlink.com 1.10,2013-08-11 09:55:00,
2013-08-11 06:10:00,54.0,51.0,30.06,West,265,4.0,5.0,89,0.00,,,0.00,5,weatherlink.com 1.10,2013-08-11 10:10:00,
2013-08-11 06:25:00,54.5,51.0,30.07,West,261,4.0,5.0,89,0.00,,,0.00,12,weatherlink.com 1.10,2013-08-11 10:25:00,
2013-08-11 06:40:00,55.3,52.0,30.07,West,261,4.0,5.0,88,0.00,,,0.00,28,weatherlink.com 1.10,2013-08-11 10:40:00,
2013-08-11 06:55:00,56.4,53.0,30.08,West,265,3.0,5.0,87,0.00,,,0.00,60,weatherlink.com 1.10,2013-08-11 10:55:00,
2013-08-11 07:10:00,57.9,54.0,30.07,West,266,3.0,5.0,85,0.00,,,0.00,102,weatherlink.com 1.10,2013-08-11 11:10:00,
2013-08-11 07:25:00,59.6,54.0,30.08,West,268,3.0,5.0,83,0.00,,,0.00,151,weatherlink.com 1.10,2013-08-11 11:25:00,
2013-08-11 07:55:00,62.1,57.0,30.08,WSW,244,0.0,4.0,83,0.00,,,0.00,223,weatherlink.com 1.10,2013-08-11 11:55:00,
2013-08-11 08:55:00,63.5,56.0,30.09,WNW,285,5.0,8.0,76,0.00,,,0.00,448,weatherlink.com 1.10,2013-08-11 12:55:00,
2013-08-11 09:10:00,64.1,57.0,30.08,West,268,8.0,9.0,77,0.00,,,0.00,496,weatherlink.com 1.10,2013-08-11 13:10:00,
2013-08-11 09:41:00,65.2,58.0,30.09,West,265,8.0,8.0,77,0.00,,,0.00,582,weatherlink.com 1.10,2013-08-11 13:41:00,
2013-08-11 09:56:00,65.6,58.0,30.09,West,281,6.0,7.0,75,0.00,,,0.00,629,weatherlink.com 1.10,2013-08-11 13:56:00,
2013-08-11 10:11:00,66.7,57.0,30.08,West,273,4.0,9.0,70,0.00,,,0.00,668,weatherlink.com 1.10,2013-08-11 14:11:00,
2013-08-11 10:26:00,67.0,57.0,30.09,North,360,3.0,7.0,71,0.00,,,0.00,756,weatherlink.com 1.10,2013-08-11 14:26:00,
2013-08-11 10:56:00,67.4,57.0,30.08,NNW,335,4.0,9.0,70,0.00,,,0.00,865,weatherlink.com 1.10,2013-08-11 14:56:00,
2013-08-11 11:11:00,67.9,57.0,30.08,North,349,6.0,10.0,68,0.00,,,0.00,882,weatherlink.com 1.10,2013-08-11 15:11:00,
2013-08-11 11:26:00,68.2,57.0,30.08,North,360,1.0,9.0,67,0.00,,,0.00,870,weatherlink.com 1.10,2013-08-11 15:26:00,
2013-08-11 11:41:00,69.0,58.0,30.07,West,270,7.0,11.0,67,0.00,,,0.00,921,weatherlink.com 1.10,2013-08-11 15:41:00,
2013-08-11 11:56:00,68.7,56.0,30.07,NW,311,4.0,8.0,65,0.00,,,0.00,953,weatherlink.com 1.10,2013-08-11 15:56:00,
2013-08-11 12:11:00,69.1,57.0,30.07,WNW,296,7.0,11.0,65,0.00,,,0.00,243,weatherlink.com 1.10,2013-08-11 16:11:00,
2013-08-11 12:26:00,69.0,58.0,30.07,WNW,291,3.0,9.0,67,0.00,,,0.00,670,weatherlink.com 1.10,2013-08-11 16:26:00,
2013-08-11 12:41:00,70.0,59.0,30.07,West,265,5.0,8.0,69,0.00,,,0.00,1099,weatherlink.com 1.10,2013-08-11 16:41:00,
2013-08-11 12:56:00,69.8,58.0,30.06,NW,321,5.0,9.0,67,0.00,,,0.00,1190,weatherlink.com 1.10,2013-08-11 16:56:00,
2013-08-11 13:11:00,69.7,59.0,30.06,NNW,346,2.0,9.0,68,0.00,,,0.00,995,weatherlink.com 1.10,2013-08-11 17:11:00,
2013-08-11 13:26:00,70.6,58.0,30.06,West,278,8.0,14.0,64,0.00,,,0.00,1155,weatherlink.com 1.10,2013-08-11 17:26:00,
2013-08-11 13:41:00,70.5,57.0,30.05,WSW,253,2.0,12.0,63,0.00,,,0.00,278,weatherlink.com 1.10,2013-08-11 17:41:00,
2013-08-11 13:56:00,69.8,58.0,30.05,WSW,242,5.0,10.0,66,0.00,,,0.00,223,weatherlink.com 1.10,2013-08-11 17:56:00,
2013-08-11 14:11:00,70.1,58.0,30.05,NNW,329,4.0,11.0,66,0.00,,,0.00,522,weatherlink.com 1.10,2013-08-11 18:11:00,
2013-08-11 14:26:00,70.2,59.0,30.05,WNW,292,8.0,10.0,67,0.00,,,0.00,1023,weatherlink.com 1.10,2013-08-11 18:26:00,
2013-08-11 14:41:00,71.7,60.0,30.04,WSW,252,9.0,13.0,67,0.00,,,0.00,916,weatherlink.com 1.10,2013-08-11 18:41:00,
2013-08-11 14:56:00,71.7,58.0,30.04,WSW,254,2.0,10.0,62,0.00,,,0.00,856,weatherlink.com 1.10,2013-08-11 18:56:00,
2013-08-11 15:11:00,71.8,57.0,30.03,NW,310,3.0,11.0,60,0.00,,,0.00,919,weatherlink.com 1.10,2013-08-11 19:11:00,
2013-08-11 15:26:00,71.2,59.0,30.03,West,271,5.0,12.0,65,0.00,,,0.00,893,weatherlink.com 1.10,2013-08-11 19:26:00,
2013-08-11 15:41:00,71.7,58.0,30.03,WSW,237,3.0,10.0,62,0.00,,,0.00,780,weatherlink.com 1.10,2013-08-11 19:41:00,
2013-08-11 15:56:00,72.2,59.0,30.02,NNW,337,2.0,10.0,63,0.00,,,0.00,837,weatherlink.com 1.10,2013-08-11 19:56:00,
2013-08-11 16:11:00,71.6,57.0,30.02,NW,320,3.0,9.0,61,0.00,,,0.00,737,weatherlink.com 1.10,2013-08-11 20:11:00,
2013-08-11 16:26:00,71.2,58.0,30.02,West,278,4.0,12.0,63,0.00,,,0.00,661,weatherlink.com 1.10,2013-08-11 20:26:00,
2013-08-11 16:41:00,71.7,57.0,30.02,West,266,2.0,11.0,61,0.00,,,0.00,647,weatherlink.com 1.10,2013-08-11 20:41:00,
2013-08-11 16:57:00,71.9,58.0,30.02,WNW,296,3.0,9.0,61,0.00,,,0.00,578,weatherlink.com 1.10,2013-08-11 20:57:00,
2013-08-11 17:12:00,71.7,56.0,30.02,NW,319,4.0,9.0,59,0.00,,,0.00,534,weatherlink.com 1.10,2013-08-11 21:12:00,
2013-08-11 17:27:00,71.3,58.0,30.02,WSW,250,3.0,12.0,63,0.00,,,0.00,480,weatherlink.com 1.10,2013-08-11 21:27:00,
2013-08-11 17:42:00,71.6,58.0,30.02,WSW,254,6.0,10.0,63,0.00,,,0.00,434,weatherlink.com 1.10,2013-08-11 21:42:00,
2013-08-11 17:57:00,71.1,58.0,30.01,WNW,294,2.0,8.0,64,0.00,,,0.00,387,weatherlink.com 1.10,2013-08-11 21:57:00,
2013-08-11 18:12:00,70.7,57.0,30.01,WNW,286,1.0,9.0,63,0.00,,,0.00,334,weatherlink.com 1.10,2013-08-11 22:12:00,
2013-08-11 18:27:00,70.3,58.0,30.00,SW,227,4.0,7.0,65,0.00,,,0.00,292,weatherlink.com 1.10,2013-08-11 22:27:00,
2013-08-11 18:42:00,70.1,57.0,30.00,West,276,0.0,7.0,63,0.00,,,0.00,234,weatherlink.com 1.10,2013-08-11 22:42:00,
2013-08-11 18:57:00,69.6,57.0,30.00,West,281,0.0,6.0,64,0.00,,,0.00,183,weatherlink.com 1.10,2013-08-11 22:57:00,
2013-08-11 19:12:00,68.4,56.0,30.01,WNW,295,3.0,6.0,65,0.00,,,0.00,26,weatherlink.com 1.10,2013-08-11 23:12:00,
2013-08-11 19:27:00,66.6,56.0,30.01,WNW,292,1.0,6.0,69,0.00,,,0.00,19,weatherlink.com 1.10,2013-08-11 23:27:00,
2013-08-11 19:57:00,64.4,56.0,30.00,West,276,1.0,4.0,74,0.00,,,0.00,7,weatherlink.com 1.10,2013-08-11 23:57:00,
2013-08-11 20:12:00,63.7,55.0,30.01,WNW,289,2.0,5.0,74,0.00,,,0.00,0,weatherlink.com 1.10,2013-08-12 00:12:00,
2013-08-11 20:27:00,62.5,56.0,30.01,WNW,282,0.0,4.0,78,0.00,,,0.00,0,weatherlink.com 1.10,2013-08-12 00:27:00,
2013-08-11 20:57:00,60.2,55.0,30.01,West,278,3.0,4.0,83,0.00,,,0.00,0,weatherlink.com 1.10,2013-08-12 00:57:00,
2013-08-11 21:12:00,59.5,55.0,30.01,West,278,2.0,3.0,85,0.00,,,0.00,0,weatherlink.com 1.10,2013-08-12 01:12:00,
2013-08-11 21:27:00,59.1,55.0,30.02,West,278,2.0,3.0,86,0.00,,,0.00,0,weatherlink.com 1.10,2013-08-12 01:27:00,
2013-08-11 21:57:00,58.7,55.0,30.02,West,278,2.0,4.0,86,0.00,,,0.00,0,weatherlink.com 1.10,2013-08-12 01:57:00,
2013-08-11 22:12:00,59.0,55.0,30.01,West,278,2.0,3.0,86,0.00,,,0.00,0,weatherlink.com 1.10,2013-08-12 02:12:00,
2013-08-11 22:42:00,59.2,54.0,30.01,WNW,282,2.0,5.0,84,0.00,,,0.00,0,weatherlink.com 1.10,2013-08-12 02:42:00,
2013-08-11 22:57:00,59.3,55.0,30.01,West,271,2.0,5.0,84,0.00,,,0.00,0,weatherlink.com 1.10,2013-08-12 02:57:00,
2013-08-11 23:12:00,59.6,54.0,30.01,West,273,3.0,4.0,83,0.00,,,0.00,0,weatherlink.com 1.10,2013-08-12 03:12:00,
2013-08-11 23:27:00,59.6,54.0,30.02,West,275,3.0,5.0,83,0.00,,,0.00,0,weatherlink.com 1.10,2013-08-12 03:27:00,
2013-08-11 23:42:00,59.6,54.0,30.02,West,279,2.0,4.0,83,0.00,,,0.00,0,weatherlink.com 1.10,2013-08-12 03:42:00,
2013-08-11 23:57:00,59.6,55.0,30.01,West,268,4.0,5.0,85,0.00,,,0.00,0,weatherlink.com 1.10,2013-08-12 03:57:00,